sensor_id;sensor_type;location;lat;lon;timestamp;noise_LAeq;noise_LA_min;noise_LA_max;noise_LA01;noise_LA95
45651;Laerm;31365;48.858;8.530;2022-12-18T00:00:08;51.86;36.20;71.88;;
45651;Laerm;31365;48.858;8.530;2022-12-18T00:02:39;40.17;35.36;44.54;;
45651;Laerm;31365;48.858;8.530;2022-12-18T00:05:08;41.33;36.45;48.44;;
45651;Laerm;31365;48.858;8.530;2022-12-18T00:07:36;51.29;35.36;70.94;;
45651;Laerm;31365;48.858;8.530;2022-12-18T00:10:08;40.00;35.04;42.58;;
45651;Laerm;31365;48.858;8.530;2022-12-18T00:12:36;53.29;35.94;70.88;;
45651;Laerm;31365;48.858;8.530;2022-12-18T00:15:05;49.12;34.69;69.64;;
45651;Laerm;31365;48.858;8.530;2022-12-18T00:17:35;54.65;36.69;75.48;;
45651;Laerm;31365;48.858;8.530;2022-12-18T00:20:04;57.01;35.94;72.04;;
45651;Laerm;31365;48.858;8.530;2022-12-18T00:22:33;41.14;36.45;50.44;;
45651;Laerm;31365;48.858;8.530;2022-12-18T00:25:02;56.84;36.45;78.45;;
45651;Laerm;31365;48.858;8.530;2022-12-18T00:27:32;49.74;36.45;70.24;;
45651;Laerm;31365;48.858;8.530;2022-12-18T00:30:00;54.69;35.36;74.29;;
45651;Laerm;31365;48.858;8.530;2022-12-18T00:32:29;51.31;35.31;75.29;;
45651;Laerm;31365;48.858;8.530;2022-12-18T00:34:57;40.56;35.36;46.05;;
45651;Laerm;31365;48.858;8.530;2022-12-18T00:37:25;53.39;37.52;71.01;;
45651;Laerm;31365;48.858;8.530;2022-12-18T00:39:55;40.37;35.36;42.35;;
45651;Laerm;31365;48.858;8.530;2022-12-18T00:42:23;40.51;36.69;43.44;;
45651;Laerm;31365;48.858;8.530;2022-12-18T00:45:12;56.22;35.36;73.65;;
45651;Laerm;31365;48.858;8.530;2022-12-18T00:47:40;40.78;36.69;50.18;;
45651;Laerm;31365;48.858;8.530;2022-12-18T00:50:09;52.03;35.94;69.55;;
45651;Laerm;31365;48.858;8.530;2022-12-18T00:52:40;49.29;33.44;68.15;;
45651;Laerm;31365;48.858;8.530;2022-12-18T00:55:10;51.12;35.36;72.48;;
45651;Laerm;31365;48.858;8.530;2022-12-18T00:57:39;53.35;33.90;71.19;;
45651;Laerm;31365;48.858;8.530;2022-12-18T01:00:13;48.99;36.45;68.24;;
45651;Laerm;31365;48.858;8.530;2022-12-18T01:02:42;40.78;35.66;45.60;;
45651;Laerm;31365;48.858;8.530;2022-12-18T01:05:13;40.45;36.69;42.93;;
45651;Laerm;31365;48.858;8.530;2022-12-18T01:07:43;52.58;33.90;70.19;;
45651;Laerm;31365;48.858;8.530;2022-12-18T01:10:12;54.25;35.66;72.82;;
45651;Laerm;31365;48.858;8.530;2022-12-18T01:12:41;50.12;36.45;70.73;;
45651;Laerm;31365;48.858;8.530;2022-12-18T01:15:13;48.13;35.36;67.66;;
45651;Laerm;31365;48.858;8.530;2022-12-18T01:17:43;40.68;35.66;51.03;;
45651;Laerm;31365;48.858;8.530;2022-12-18T01:20:12;41.22;35.66;49.89;;
45651;Laerm;31365;48.858;8.530;2022-12-18T01:22:40;48.36;36.45;67.75;;
45651;Laerm;31365;48.858;8.530;2022-12-18T01:25:09;53.95;36.69;72.05;;
45651;Laerm;31365;48.858;8.530;2022-12-18T01:27:37;53.39;34.69;75.87;;
45651;Laerm;31365;48.858;8.530;2022-12-18T01:30:08;52.73;35.94;72.96;;
45651;Laerm;31365;48.858;8.530;2022-12-18T01:32:38;55.82;36.45;72.20;;
45651;Laerm;31365;48.858;8.530;2022-12-18T01:35:07;47.88;35.66;69.63;;
45651;Laerm;31365;48.858;8.530;2022-12-18T01:37:36;40.19;35.66;44.07;;
45651;Laerm;31365;48.858;8.530;2022-12-18T01:40:07;45.94;34.31;65.09;;
45651;Laerm;31365;48.858;8.530;2022-12-18T01:42:35;41.90;33.90;61.15;;
45651;Laerm;31365;48.858;8.530;2022-12-18T01:45:22;50.06;34.31;71.05;;
45651;Laerm;31365;48.858;8.530;2022-12-18T01:47:57;48.95;35.04;69.19;;
45651;Laerm;31365;48.858;8.530;2022-12-18T01:50:32;39.89;34.69;43.54;;
45651;Laerm;31365;48.858;8.530;2022-12-18T01:53:07;53.99;32.93;78.33;;
45651;Laerm;31365;48.858;8.530;2022-12-18T01:55:48;39.99;34.31;42.22;;
45651;Laerm;31365;48.858;8.530;2022-12-18T01:58:28;40.15;35.66;43.39;;
45651;Laerm;31365;48.858;8.530;2022-12-18T02:00:58;40.17;34.31;42.42;;
45651;Laerm;31365;48.858;8.530;2022-12-18T02:03:29;39.69;33.90;42.82;;
45651;Laerm;31365;48.858;8.530;2022-12-18T02:06:07;49.61;35.36;69.82;;
45651;Laerm;31365;48.858;8.530;2022-12-18T02:08:46;39.85;35.36;44.43;;
45651;Laerm;31365;48.858;8.530;2022-12-18T02:11:25;40.13;33.90;43.14;;
45651;Laerm;31365;48.858;8.530;2022-12-18T02:14:06;40.05;34.31;42.98;;
45651;Laerm;31365;48.858;8.530;2022-12-18T02:16:51;39.99;34.69;42.98;;
45651;Laerm;31365;48.858;8.530;2022-12-18T02:19:58;39.96;35.04;43.04;;
45651;Laerm;31365;48.858;8.530;2022-12-18T02:22:44;51.71;35.36;70.87;;
45651;Laerm;31365;48.858;8.530;2022-12-18T02:25:40;39.68;33.90;42.53;;
45651;Laerm;31365;48.858;8.530;2022-12-18T02:28:19;39.81;34.69;48.98;;
45651;Laerm;31365;48.858;8.530;2022-12-18T02:30:53;53.41;34.69;71.07;;
45651;Laerm;31365;48.858;8.530;2022-12-18T02:33:26;39.56;33.90;42.09;;
45651;Laerm;31365;48.858;8.530;2022-12-18T02:35:58;39.38;33.44;41.68;;
45651;Laerm;31365;48.858;8.530;2022-12-18T02:38:31;50.57;34.69;71.41;;
45651;Laerm;31365;48.858;8.530;2022-12-18T02:41:07;50.29;35.04;71.07;;
45651;Laerm;31365;48.858;8.530;2022-12-18T02:43:37;39.66;34.69;42.09;;
45651;Laerm;31365;48.858;8.530;2022-12-18T02:46:28;39.87;33.97;42.59;;
45651;Laerm;31365;48.858;8.530;2022-12-18T02:49:26;48.72;35.04;68.79;;
45651;Laerm;31365;48.858;8.530;2022-12-18T02:52:15;49.57;34.31;69.67;;
45651;Laerm;31365;48.858;8.530;2022-12-18T02:55:02;62.19;33.44;88.16;;
45651;Laerm;31365;48.858;8.530;2022-12-18T02:57:45;50.35;34.31;72.80;;
45651;Laerm;31365;48.858;8.530;2022-12-18T03:00:28;39.63;33.90;44.43;;
45651;Laerm;31365;48.858;8.530;2022-12-18T03:03:10;41.01;33.44;46.02;;
45651;Laerm;31365;48.858;8.530;2022-12-18T03:05:47;39.43;34.31;43.14;;
45651;Laerm;31365;48.858;8.530;2022-12-18T03:08:22;39.43;34.69;42.22;;
45651;Laerm;31365;48.858;8.530;2022-12-18T03:10:59;39.84;32.93;44.65;;
45651;Laerm;31365;48.858;8.530;2022-12-18T03:13:36;39.99;33.44;51.47;;
45651;Laerm;31365;48.858;8.530;2022-12-18T03:16:14;50.32;35.04;70.22;;
45651;Laerm;31365;48.858;8.530;2022-12-18T03:21:20;50.58;35.04;70.65;;
45651;Laerm;31365;48.858;8.530;2022-12-18T03:23:53;48.05;35.94;68.27;;
45651;Laerm;31365;48.858;8.530;2022-12-18T03:26:27;40.04;34.69;44.03;;
45651;Laerm;31365;48.858;8.530;2022-12-18T03:31:39;40.23;35.36;42.98;;
45651;Laerm;31365;48.858;8.530;2022-12-18T03:34:14;52.12;32.93;75.20;;
45651;Laerm;31365;48.858;8.530;2022-12-18T03:36:46;56.11;35.36;74.13;;
45651;Laerm;31365;48.858;8.530;2022-12-18T03:39:15;39.78;34.31;42.41;;
45651;Laerm;31365;48.858;8.530;2022-12-18T03:42:00;54.90;34.31;75.24;;
45651;Laerm;31365;48.858;8.530;2022-12-18T03:44:44;40.49;35.04;51.95;;
45651;Laerm;31365;48.858;8.530;2022-12-18T03:47:27;45.17;35.36;63.65;;
45651;Laerm;31365;48.858;8.530;2022-12-18T03:50:11;40.41;34.69;50.36;;
45651;Laerm;31365;48.858;8.530;2022-12-18T03:52:50;39.83;35.36;42.47;;
45651;Laerm;31365;48.858;8.530;2022-12-18T03:55:22;39.94;34.69;42.59;;
45651;Laerm;31365;48.858;8.530;2022-12-18T03:58:00;39.95;35.94;49.00;;
45651;Laerm;31365;48.858;8.530;2022-12-18T04:00:40;49.53;35.04;70.36;;
45651;Laerm;31365;48.858;8.530;2022-12-18T04:03:13;39.64;35.04;48.08;;
45651;Laerm;31365;48.858;8.530;2022-12-18T04:05:48;39.61;34.69;42.03;;
45651;Laerm;31365;48.858;8.530;2022-12-18T04:08:22;39.83;35.36;42.35;;
45651;Laerm;31365;48.858;8.530;2022-12-18T04:11:01;39.91;35.31;43.19;;
45651;Laerm;31365;48.858;8.530;2022-12-18T04:13:35;52.99;34.31;75.01;;
45651;Laerm;31365;48.858;8.530;2022-12-18T04:16:09;52.69;34.31;73.11;;
45651;Laerm;31365;48.858;8.530;2022-12-18T04:21:10;39.33;35.04;41.82;;
45651;Laerm;31365;48.858;8.530;2022-12-18T04:23:39;55.13;33.90;74.45;;
45651;Laerm;31365;48.858;8.530;2022-12-18T04:26:07;39.14;30.89;43.94;;
45651;Laerm;31365;48.858;8.530;2022-12-18T04:28:56;52.58;33.90;75.58;;
45651;Laerm;31365;48.858;8.530;2022-12-18T04:31:25;40.64;35.04;48.90;;
45651;Laerm;31365;48.858;8.530;2022-12-18T04:33:57;39.48;34.31;42.71;;
45651;Laerm;31365;48.858;8.530;2022-12-18T04:36:27;51.08;34.31;73.44;;
45651;Laerm;31365;48.858;8.530;2022-12-18T04:38:57;39.32;34.69;42.22;;
45651;Laerm;31365;48.858;8.530;2022-12-18T04:41:25;54.52;32.35;81.12;;
45651;Laerm;31365;48.858;8.530;2022-12-18T04:43:54;53.08;33.44;73.82;;
45651;Laerm;31365;48.858;8.530;2022-12-18T04:46:23;54.38;34.31;76.59;;
45651;Laerm;31365;48.858;8.530;2022-12-18T04:48:51;39.90;35.36;43.34;;
45651;Laerm;31365;48.858;8.530;2022-12-18T04:51:21;40.26;34.69;45.80;;
45651;Laerm;31365;48.858;8.530;2022-12-18T04:53:52;51.11;37.32;72.40;;
45651;Laerm;31365;48.858;8.530;2022-12-18T04:56:21;40.29;35.36;46.40;;
45651;Laerm;31365;48.858;8.530;2022-12-18T04:58:50;51.42;33.44;71.86;;
45651;Laerm;31365;48.858;8.530;2022-12-18T05:01:19;40.03;35.66;43.14;;
45651;Laerm;31365;48.858;8.530;2022-12-18T05:03:47;39.79;35.94;42.16;;
45651;Laerm;31365;48.858;8.530;2022-12-18T05:06:16;39.99;35.66;42.59;;
45651;Laerm;31365;48.858;8.530;2022-12-18T05:08:46;55.12;35.36;77.07;;
45651;Laerm;31365;48.858;8.530;2022-12-18T05:11:15;39.91;34.69;42.98;;
45651;Laerm;31365;48.858;8.530;2022-12-18T05:13:44;39.92;35.36;42.30;;
45651;Laerm;31365;48.858;8.530;2022-12-18T05:16:14;39.81;34.69;42.29;;
45651;Laerm;31365;48.858;8.530;2022-12-18T05:18:43;39.70;33.90;42.22;;
45651;Laerm;31365;48.858;8.530;2022-12-18T05:24:56;49.91;35.36;71.58;;
45651;Laerm;31365;48.858;8.530;2022-12-18T05:27:25;40.52;34.69;50.28;;
45651;Laerm;31365;48.858;8.530;2022-12-18T05:29:53;50.81;33.55;70.18;;
45651;Laerm;31365;48.858;8.530;2022-12-18T05:32:21;43.94;35.36;61.20;;
45651;Laerm;31365;48.858;8.530;2022-12-18T05:34:50;39.99;35.04;53.24;;
45651;Laerm;31365;48.858;8.530;2022-12-18T05:37:19;48.81;35.04;69.02;;
45651;Laerm;31365;48.858;8.530;2022-12-18T05:39:47;39.86;32.93;54.95;;
45651;Laerm;31365;48.858;8.530;2022-12-18T05:42:17;39.93;35.04;56.22;;
45651;Laerm;31365;48.858;8.530;2022-12-18T05:44:46;40.18;35.36;44.19;;
45651;Laerm;31365;48.858;8.530;2022-12-18T05:47:14;39.91;34.69;44.11;;
45651;Laerm;31365;48.858;8.530;2022-12-18T05:49:43;39.68;33.90;43.68;;
45651;Laerm;31365;48.858;8.530;2022-12-18T05:52:12;40.82;33.44;55.32;;
45651;Laerm;31365;48.858;8.530;2022-12-18T05:54:40;50.72;33.90;71.16;;
45651;Laerm;31365;48.858;8.530;2022-12-18T05:57:08;62.07;33.90;83.04;;
45651;Laerm;31365;48.858;8.530;2022-12-18T05:59:39;40.28;34.31;45.45;;
45651;Laerm;31365;48.858;8.530;2022-12-18T06:02:07;55.99;34.31;77.52;;
45651;Laerm;31365;48.858;8.530;2022-12-18T06:04:36;56.92;33.90;77.90;;
45651;Laerm;31365;48.858;8.530;2022-12-18T06:07:05;49.98;35.66;71.25;;
45651;Laerm;31365;48.858;8.530;2022-12-18T06:09:33;51.44;34.31;72.36;;
45651;Laerm;31365;48.858;8.530;2022-12-18T06:12:01;53.56;35.59;74.81;;
45651;Laerm;31365;48.858;8.530;2022-12-18T06:14:29;51.62;34.69;72.51;;
45651;Laerm;31365;48.858;8.530;2022-12-18T06:16:59;39.74;34.69;46.33;;
45651;Laerm;31365;48.858;8.530;2022-12-18T06:19:27;56.86;35.04;74.53;;
45651;Laerm;31365;48.858;8.530;2022-12-18T06:21:56;39.47;34.69;48.40;;
45651;Laerm;31365;48.858;8.530;2022-12-18T06:24:26;39.64;33.90;49.82;;
45651;Laerm;31365;48.858;8.530;2022-12-18T06:26:54;48.03;34.31;69.46;;
45651;Laerm;31365;48.858;8.530;2022-12-18T06:29:22;39.82;34.69;45.30;;
45651;Laerm;31365;48.858;8.530;2022-12-18T06:31:51;39.56;35.04;43.39;;
45651;Laerm;31365;48.858;8.530;2022-12-18T06:34:21;41.75;33.90;59.12;;
45651;Laerm;31365;48.858;8.530;2022-12-18T06:36:49;53.82;35.36;73.59;;
45651;Laerm;31365;48.858;8.530;2022-12-18T06:39:18;52.87;34.69;71.64;;
45651;Laerm;31365;48.858;8.530;2022-12-18T06:41:46;55.01;35.36;74.13;;
45651;Laerm;31365;48.858;8.530;2022-12-18T06:44:14;51.64;35.66;75.75;;
45651;Laerm;31365;48.858;8.530;2022-12-18T06:46:43;51.20;35.94;71.04;;
45651;Laerm;31365;48.858;8.530;2022-12-18T06:49:11;51.62;35.94;72.26;;
45651;Laerm;31365;48.858;8.530;2022-12-18T06:51:42;40.75;33.44;46.43;;
45651;Laerm;31365;48.858;8.530;2022-12-18T06:54:11;42.01;36.20;59.60;;
45651;Laerm;31365;48.858;8.530;2022-12-18T06:56:40;40.16;35.94;44.27;;
45651;Laerm;31365;48.858;8.530;2022-12-18T06:59:08;53.98;35.36;73.62;;
45651;Laerm;31365;48.858;8.530;2022-12-18T07:01:36;49.93;32.93;70.45;;
45651;Laerm;31365;48.858;8.530;2022-12-18T07:04:05;54.25;35.66;70.78;;
45651;Laerm;31365;48.858;8.530;2022-12-18T07:06:33;47.39;34.69;65.78;;
45651;Laerm;31365;48.858;8.530;2022-12-18T07:09:03;56.00;34.34;78.78;;
45651;Laerm;31365;48.858;8.530;2022-12-18T07:11:33;40.69;34.69;52.29;;
45651;Laerm;31365;48.858;8.530;2022-12-18T07:14:01;48.08;35.36;65.38;;
45651;Laerm;31365;48.858;8.530;2022-12-18T07:16:30;40.20;34.31;58.97;;
45651;Laerm;31365;48.858;8.530;2022-12-18T07:18:58;52.96;36.34;74.61;;
45651;Laerm;31365;48.858;8.530;2022-12-18T07:21:27;41.69;35.66;64.62;;
45651;Laerm;31365;48.858;8.530;2022-12-18T07:23:55;40.49;35.94;48.10;;
45651;Laerm;31365;48.858;8.530;2022-12-18T07:26:25;54.67;37.12;71.12;;
45651;Laerm;31365;48.858;8.530;2022-12-18T07:28:56;51.64;36.20;71.63;;
45651;Laerm;31365;48.858;8.530;2022-12-18T07:31:26;53.48;36.69;69.16;;
45651;Laerm;31365;48.858;8.530;2022-12-18T07:33:55;51.80;37.12;70.04;;
45651;Laerm;31365;48.858;8.530;2022-12-18T07:36:24;57.96;33.44;73.91;;
45651;Laerm;31365;48.858;8.530;2022-12-18T07:38:53;50.64;36.45;68.87;;
45651;Laerm;31365;48.858;8.530;2022-12-18T07:41:21;50.38;36.20;70.33;;
45651;Laerm;31365;48.858;8.530;2022-12-18T07:43:52;47.57;34.69;66.45;;
45651;Laerm;31365;48.858;8.530;2022-12-18T07:46:20;41.93;35.36;54.30;;
45651;Laerm;31365;48.858;8.530;2022-12-18T07:48:49;55.98;36.20;72.64;;
45651;Laerm;31365;48.858;8.530;2022-12-18T07:51:18;52.46;34.69;73.34;;
45651;Laerm;31365;48.858;8.530;2022-12-18T07:53:47;58.64;35.94;82.05;;
45651;Laerm;31365;48.858;8.530;2022-12-18T07:56:20;53.30;34.31;69.82;;
45651;Laerm;31365;48.858;8.530;2022-12-18T07:58:57;51.95;35.66;72.21;;
45651;Laerm;31365;48.858;8.530;2022-12-18T08:01:26;53.95;36.20;72.38;;
45651;Laerm;31365;48.858;8.530;2022-12-18T08:03:57;57.38;37.12;75.82;;
45651;Laerm;31365;48.858;8.530;2022-12-18T08:06:26;56.14;35.94;73.31;;
45651;Laerm;31365;48.858;8.530;2022-12-18T08:08:55;55.49;36.77;73.25;;
45651;Laerm;31365;48.858;8.530;2022-12-18T08:11:27;56.91;42.76;76.34;;
45651;Laerm;31365;48.858;8.530;2022-12-18T08:13:58;54.23;38.81;73.31;;
45651;Laerm;31365;48.858;8.530;2022-12-18T08:16:27;58.06;37.17;74.26;;
45651;Laerm;31365;48.858;8.530;2022-12-18T08:18:55;54.96;35.66;73.74;;
45651;Laerm;31365;48.858;8.530;2022-12-18T08:21:26;60.61;39.70;78.30;;
45651;Laerm;31365;48.858;8.530;2022-12-18T08:23:57;59.74;41.53;75.39;;
45651;Laerm;31365;48.858;8.530;2022-12-18T08:26:29;54.60;41.75;69.84;;
45651;Laerm;31365;48.858;8.530;2022-12-18T08:29:00;51.57;39.68;71.36;;
45651;Laerm;31365;48.858;8.530;2022-12-18T08:31:30;52.46;37.32;69.23;;
45651;Laerm;31365;48.858;8.530;2022-12-18T08:33:59;56.98;40.62;75.49;;
45651;Laerm;31365;48.858;8.530;2022-12-18T08:36:27;42.00;37.70;48.36;;
45651;Laerm;31365;48.858;8.530;2022-12-18T08:38:56;58.66;35.94;74.02;;
45651;Laerm;31365;48.858;8.530;2022-12-18T08:41:26;57.44;38.05;76.27;;
45651;Laerm;31365;48.858;8.530;2022-12-18T08:43:54;56.99;37.12;72.81;;
45651;Laerm;31365;48.858;8.530;2022-12-18T08:46:44;53.89;36.56;72.68;;
45651;Laerm;31365;48.858;8.530;2022-12-18T08:49:13;55.12;36.91;76.17;;
45651;Laerm;31365;48.858;8.530;2022-12-18T08:51:41;57.78;37.52;73.56;;
45651;Laerm;31365;48.858;8.530;2022-12-18T08:54:12;59.42;37.88;74.79;;
45651;Laerm;31365;48.858;8.530;2022-12-18T08:56:40;59.54;39.34;74.96;;
45651;Laerm;31365;48.858;8.530;2022-12-18T08:59:09;58.91;38.52;79.38;;
45651;Laerm;31365;48.858;8.530;2022-12-18T09:01:47;58.21;37.70;77.36;;
45651;Laerm;31365;48.858;8.530;2022-12-18T09:04:17;57.85;40.13;73.21;;
45651;Laerm;31365;48.858;8.530;2022-12-18T09:06:45;56.81;38.81;72.97;;
45651;Laerm;31365;48.858;8.530;2022-12-18T09:09:14;55.89;36.69;74.56;;
45651;Laerm;31365;48.858;8.530;2022-12-18T09:11:43;52.71;36.91;69.89;;
45651;Laerm;31365;48.858;8.530;2022-12-18T09:14:11;54.36;37.52;77.28;;
45651;Laerm;31365;48.858;8.530;2022-12-18T09:16:40;57.37;38.95;73.37;;
45651;Laerm;31365;48.858;8.530;2022-12-18T09:19:10;53.67;37.52;70.15;;
45651;Laerm;31365;48.858;8.530;2022-12-18T09:21:39;57.83;38.37;76.25;;
45651;Laerm;31365;48.858;8.530;2022-12-18T10:51:47;60.07;38.52;74.89;;
45651;Laerm;31365;48.858;8.530;2022-12-18T10:54:22;57.30;36.77;72.11;;
45651;Laerm;31365;48.858;8.530;2022-12-18T10:57:37;58.92;40.43;73.06;;
45651;Laerm;31365;48.858;8.530;2022-12-18T11:00:25;56.50;37.12;71.16;;
45651;Laerm;31365;48.858;8.530;2022-12-18T11:03:00;57.29;38.67;75.94;;
45651;Laerm;31365;48.858;8.530;2022-12-18T11:05:32;57.68;38.67;72.27;;
45651;Laerm;31365;48.858;8.530;2022-12-18T11:08:30;58.85;38.52;72.60;;
45651;Laerm;31365;48.858;8.530;2022-12-18T11:11:19;57.94;38.37;73.41;;
45651;Laerm;31365;48.858;8.530;2022-12-18T11:14:01;64.80;41.30;82.50;;
45651;Laerm;31365;48.858;8.530;2022-12-18T11:16:46;58.01;37.70;73.81;;
45651;Laerm;31365;48.858;8.530;2022-12-18T11:19:44;60.36;38.95;74.38;;
45651;Laerm;31365;48.858;8.530;2022-12-18T11:22:23;54.28;39.46;70.31;;
45651;Laerm;31365;48.858;8.530;2022-12-18T11:25:01;56.69;36.69;73.85;;
45651;Laerm;31365;48.858;8.530;2022-12-18T11:27:56;58.58;36.45;75.57;;
45651;Laerm;31365;48.858;8.530;2022-12-18T11:30:29;59.11;36.91;73.75;;
45651;Laerm;31365;48.858;8.530;2022-12-18T11:33:06;57.89;37.52;73.59;;
45651;Laerm;31365;48.858;8.530;2022-12-18T11:35:48;56.67;37.35;72.48;;
45651;Laerm;31365;48.858;8.530;2022-12-18T11:38:24;57.06;38.21;74.44;;
45651;Laerm;31365;48.858;8.530;2022-12-18T11:41:00;55.66;36.91;72.18;;
45651;Laerm;31365;48.858;8.530;2022-12-18T11:43:37;58.92;39.34;75.49;;
45651;Laerm;31365;48.858;8.530;2022-12-18T11:46:13;58.60;38.05;76.48;;
45651;Laerm;31365;48.858;8.530;2022-12-18T11:48:52;59.57;38.37;74.89;;
45651;Laerm;31365;48.858;8.530;2022-12-18T11:51:31;59.34;38.67;72.72;;
45651;Laerm;31365;48.858;8.530;2022-12-18T11:54:10;59.32;40.89;76.01;;
45651;Laerm;31365;48.858;8.530;2022-12-18T11:56:50;61.26;38.05;75.05;;
45651;Laerm;31365;48.858;8.530;2022-12-18T11:59:30;58.51;36.91;76.80;;
45651;Laerm;31365;48.858;8.530;2022-12-18T12:02:29;59.37;38.95;74.52;;
45651;Laerm;31365;48.858;8.530;2022-12-18T12:05:25;59.07;38.74;75.30;;
45651;Laerm;31365;48.858;8.530;2022-12-18T12:08:03;58.85;39.21;73.07;;
45651;Laerm;31365;48.858;8.530;2022-12-18T12:10:53;59.27;41.89;75.58;;
45651;Laerm;31365;48.858;8.530;2022-12-18T12:13:42;59.23;40.62;74.90;;
45651;Laerm;31365;48.858;8.530;2022-12-18T12:16:22;57.32;37.88;71.42;;
45651;Laerm;31365;48.858;8.530;2022-12-18T12:19:10;60.87;41.53;77.39;;
45651;Laerm;31365;48.858;8.530;2022-12-18T12:21:53;61.58;39.58;77.34;;
45651;Laerm;31365;48.858;8.530;2022-12-18T12:24:37;58.59;38.95;77.04;;
45651;Laerm;31365;48.858;8.530;2022-12-18T12:27:24;55.85;38.95;71.15;;
45651;Laerm;31365;48.858;8.530;2022-12-18T12:30:05;58.23;37.52;75.62;;
45651;Laerm;31365;48.858;8.530;2022-12-18T12:33:01;59.56;37.88;77.13;;
45651;Laerm;31365;48.858;8.530;2022-12-18T12:35:47;62.30;39.92;75.68;;
45651;Laerm;31365;48.858;8.530;2022-12-18T12:38:27;61.89;39.81;80.32;;
45651;Laerm;31365;48.858;8.530;2022-12-18T12:41:03;58.91;38.21;77.84;;
45651;Laerm;31365;48.858;8.530;2022-12-18T12:44:00;61.66;41.14;78.20;;
45651;Laerm;31365;48.858;8.530;2022-12-18T12:46:39;54.85;37.70;70.24;;
45651;Laerm;31365;48.858;8.530;2022-12-18T12:49:15;59.34;37.87;74.98;;
45651;Laerm;31365;48.858;8.530;2022-12-18T12:51:53;60.49;40.13;78.80;;
45651;Laerm;31365;48.858;8.530;2022-12-18T12:54:27;61.10;37.12;83.39;;
45651;Laerm;31365;48.858;8.530;2022-12-18T12:57:05;60.33;40.80;75.84;;
45651;Laerm;31365;48.858;8.530;2022-12-18T12:59:47;56.94;38.21;72.23;;
45651;Laerm;31365;48.858;8.530;2022-12-18T13:02:29;60.01;41.82;74.83;;
45651;Laerm;31365;48.858;8.530;2022-12-18T13:05:11;61.36;38.37;75.38;;
45651;Laerm;31365;48.858;8.530;2022-12-18T13:07:51;56.67;39.08;72.36;;
45651;Laerm;31365;48.858;8.530;2022-12-18T13:10:31;58.13;38.52;74.69;;
45651;Laerm;31365;48.858;8.530;2022-12-18T13:18:17;58.05;40.03;73.10;;
45651;Laerm;31365;48.858;8.530;2022-12-18T13:20:50;61.76;41.96;74.83;;
45651;Laerm;31365;48.858;8.530;2022-12-18T13:23:33;59.62;38.95;76.90;;
45651;Laerm;31365;48.858;8.530;2022-12-18T13:26:32;58.55;38.21;73.46;;
45651;Laerm;31365;48.858;8.530;2022-12-18T13:29:02;61.00;40.53;74.31;;
45651;Laerm;31365;48.858;8.530;2022-12-18T13:32:02;61.84;37.52;81.26;;
45651;Laerm;31365;48.858;8.530;2022-12-18T13:34:34;58.90;37.12;75.99;;
45651;Laerm;31365;48.858;8.530;2022-12-18T13:37:43;62.64;43.39;75.71;;
45651;Laerm;31365;48.858;8.530;2022-12-18T13:40:56;60.14;39.81;77.10;;
45651;Laerm;31365;48.858;8.530;2022-12-18T13:43:44;60.76;38.05;75.52;;
45651;Laerm;31365;48.858;8.530;2022-12-18T13:46:28;61.74;41.38;78.18;;
45651;Laerm;31365;48.858;8.530;2022-12-18T13:49:03;58.32;39.34;71.59;;
45651;Laerm;31365;48.858;8.530;2022-12-18T13:51:35;60.01;37.12;76.43;;
45651;Laerm;31365;48.858;8.530;2022-12-18T13:54:19;59.39;39.21;73.69;;
45651;Laerm;31365;48.858;8.530;2022-12-18T13:56:50;58.64;38.67;73.69;;
45651;Laerm;31365;48.858;8.530;2022-12-18T13:59:20;60.64;38.47;76.52;;
45651;Laerm;31365;48.858;8.530;2022-12-18T14:01:54;59.68;38.21;80.25;;
45651;Laerm;31365;48.858;8.530;2022-12-18T14:04:27;60.91;37.70;73.22;;
45651;Laerm;31365;48.858;8.530;2022-12-18T14:07:04;59.33;38.21;76.31;;
45651;Laerm;31365;48.858;8.530;2022-12-18T14:09:39;57.95;39.34;73.32;;
45651;Laerm;31365;48.858;8.530;2022-12-18T14:12:17;56.78;37.12;73.31;;
45651;Laerm;31365;48.858;8.530;2022-12-18T14:15:19;58.03;36.91;73.07;;
45651;Laerm;31365;48.858;8.530;2022-12-18T14:17:50;57.25;37.70;71.69;;
45651;Laerm;31365;48.858;8.530;2022-12-18T14:20:21;58.72;37.88;81.61;;
45651;Laerm;31365;48.858;8.530;2022-12-18T14:22:51;55.63;37.88;69.86;;
45651;Laerm;31365;48.858;8.530;2022-12-18T14:25:23;65.74;41.82;83.25;;
45651;Laerm;31365;48.858;8.530;2022-12-18T14:28:03;58.60;37.32;74.43;;
45651;Laerm;31365;48.858;8.530;2022-12-18T14:30:40;61.38;39.21;77.45;;
45651;Laerm;31365;48.858;8.530;2022-12-18T14:33:12;59.83;38.05;73.43;;
45651;Laerm;31365;48.858;8.530;2022-12-18T14:35:53;57.68;38.37;73.24;;
45651;Laerm;31365;48.858;8.530;2022-12-18T14:38:30;62.09;38.95;76.94;;
45651;Laerm;31365;48.858;8.530;2022-12-18T14:41:01;59.81;38.21;75.54;;
45651;Laerm;31365;48.858;8.530;2022-12-18T14:43:33;59.99;40.23;74.87;;
45651;Laerm;31365;48.858;8.530;2022-12-18T14:46:04;61.05;39.70;75.34;;
45651;Laerm;31365;48.858;8.530;2022-12-18T14:48:38;62.12;41.46;78.21;;
45651;Laerm;31365;48.858;8.530;2022-12-18T14:51:16;60.25;39.46;75.64;;
45651;Laerm;31365;48.858;8.530;2022-12-18T14:53:53;59.79;40.33;74.86;;
45651;Laerm;31365;48.858;8.530;2022-12-18T14:56:25;65.76;39.08;88.27;;
45651;Laerm;31365;48.858;8.530;2022-12-18T14:58:58;61.51;39.58;76.75;;
45651;Laerm;31365;48.858;8.530;2022-12-18T15:01:30;61.32;42.03;76.08;;
45651;Laerm;31365;48.858;8.530;2022-12-18T15:04:04;59.63;39.92;77.23;;
45651;Laerm;31365;48.858;8.530;2022-12-18T15:06:35;57.32;38.52;75.51;;
45651;Laerm;31365;48.858;8.530;2022-12-18T15:09:24;62.77;38.52;88.59;;
45651;Laerm;31365;48.858;8.530;2022-12-18T15:11:57;59.45;40.71;72.88;;
45651;Laerm;31365;48.858;8.530;2022-12-18T15:14:38;59.25;40.13;72.01;;
45651;Laerm;31365;48.858;8.530;2022-12-18T15:17:17;58.28;41.06;75.31;;
45651;Laerm;31365;48.858;8.530;2022-12-18T15:19:50;59.15;39.46;72.48;;
45651;Laerm;31365;48.858;8.530;2022-12-18T15:22:25;60.65;36.98;74.64;;
45651;Laerm;31365;48.858;8.530;2022-12-18T15:24:58;60.98;40.80;73.84;;
45651;Laerm;31365;48.858;8.530;2022-12-18T15:27:31;60.48;38.52;75.44;;
45651;Laerm;31365;48.858;8.530;2022-12-18T15:30:20;60.97;38.95;76.80;;
45651;Laerm;31365;48.858;8.530;2022-12-18T15:32:51;59.64;40.03;74.20;;
45651;Laerm;31365;48.858;8.530;2022-12-18T15:35:24;61.59;36.20;80.56;;
45651;Laerm;31365;48.858;8.530;2022-12-18T15:37:54;60.61;40.23;75.11;;
45651;Laerm;31365;48.858;8.530;2022-12-18T15:40:25;58.39;39.58;73.63;;
45651;Laerm;31365;48.858;8.530;2022-12-18T15:42:55;58.49;37.12;73.45;;
45651;Laerm;31365;48.858;8.530;2022-12-18T15:45:41;59.22;37.88;82.86;;
45651;Laerm;31365;48.858;8.530;2022-12-18T15:48:19;57.96;39.08;73.44;;
45651;Laerm;31365;48.858;8.530;2022-12-18T15:50:49;58.71;38.37;77.08;;
45651;Laerm;31365;48.858;8.530;2022-12-18T15:53:19;59.22;38.05;73.79;;
45651;Laerm;31365;48.858;8.530;2022-12-18T15:55:49;57.61;37.70;72.89;;
45651;Laerm;31365;48.858;8.530;2022-12-18T15:58:36;56.59;39.34;72.18;;
45651;Laerm;31365;48.858;8.530;2022-12-18T16:01:05;59.97;40.53;76.04;;
45651;Laerm;31365;48.858;8.530;2022-12-18T16:03:41;57.22;38.52;75.00;;
45651;Laerm;31365;48.858;8.530;2022-12-18T16:06:11;58.52;39.70;73.27;;
45651;Laerm;31365;48.858;8.530;2022-12-18T16:08:40;56.14;37.88;74.59;;